航空気象通報

ウインドサーファーのための航空気象通報による風予報です。

2/13-2/14の航空気象通報(国内、海外)

2012年02月13日 21時55分40秒 | TAF

羽田空港
TAF RJTT 130841Z 1309/1412 02006KT 8000 FEW020 BKN040
      TEMPO 1314/1318 4000 -RA BR FEW004 BKN008
      TEMPO 1409/1412 4000 -RA BR
日本時間13日18時-14日21時:020度から6ノットの風

但し、13日23時-14日03時の間:ときどき
但し、14日18-21時の間:ときどき

静岡空港
TAF RJNS 130843Z 1309/1412 33006KT 8000 FEW008 BKN030
      TEMPO 1309/1315 4000 -RA BR FEW005 BKN008
      BECMG 1409/1412 25012KT
日本時間13日18時-14日18時:330度から6ノットの風
18-21時:風が変化
21時:250度から12ノットの風

但し、13日18-24時の間:ときどき

福岡空港
TAF RJFF 130848Z 1309/1412 02003KT 9999 FEW015 BKN030
      TEMPO 1309/1311 FEW005 BKN008 BKN015
      BECMG 1310/1312 12005KT
      TEMPO 1321/1403 4000 -RA BR
      BECMG 1403/1406 01004KT
      TEMPO 1403/1409 3000 -RA BR FEW005 BKN008 BKN015
日本時間13日18-19時:020度から3ノットの風
19-21時:風が変化
21時-14日12時:120度から5ノットの風
12-15時:風が変化
15-21時:010度から4ノットの風

但し、14日06-18時の間:ときどき

那覇空港
TAF ROAH 130840Z 1309/1412 15008KT 9999 FEW015
日本時間13日18時-14日21時:150度から8ノットの風

マウイのカフルイ空港
TAF PHOG 131138Z 1312/1412 09006KT P6SM FEW030 SCT050
     FM132100 06014G23KT P6SM SCT045
     FM140400 08010G15KT P6SM FEW050
     FM141000 12005KT P6SM FEW060
ハワイ時間13日02-11時:090度から6ノットの風
11-18時:060度から14ノット、突風23ノット
18-24時:080度から10ノット、突風15ノット
14日00-02時:140度から5ノットの風

サイパン空港
TAF PGSN 131130Z 1312/1412 09011KT P6SM VCSH SCT020 BKN060
      TEMPO 1312/1314 -SHRA BKN020 BKN040 OVC050
     FM132200 09016KT P6SM VCSH SCT020 SCT040 BKN080
マリアナ時間13日22時-14日08時:090度から11ノットの風
08-22時:090度から16ノットの風

コメント